Time;durP1;ratioP1;P1;durP2;ratioP2;P2;SDS_P1;SDS_P2;PMS_P1;PMS_P2;Temp;Humidity;BMP_temperature;BMP_pressure;BME280_temperature;BME280_humidity;BME280_pressure;Samples;Min_cycle;Max_cycle;Signal;HPM_P1;HPM_P2
2023/08/31 00:00:51;;;;;;;9.68;5.10;;;;;;;23.58;52.58;99254.53;5081573;28;20039;-30
2023/08/31 00:03:16;;;;;;;;;;;;;;;23.36;54.07;99262.91;5105392;28;20112;-30
2023/08/31 00:05:43;;;;;;;9.50;5.28;;;;;;;23.52;53.30;99253.09;5104953;28;20393;-30
2023/08/31 00:08:09;;;;;;;10.05;5.72;;;;;;;23.36;54.35;99243.88;5104930;28;20028;-30
2023/08/31 00:10:35;;;;;;;9.40;5.15;;;;;;;23.42;53.68;99258.91;5105058;28;20092;-30
2023/08/31 00:13:04;;;;;;;10.10;4.50;;;;;;;23.69;52.50;99267.78;5105129;28;20309;-31
2023/08/31 00:15:32;;;;;;;7.65;5.00;;;;;;;23.43;53.93;99269.44;5105013;28;20065;-30
2023/08/31 00:17:58;;;;;;;10.45;5.90;;;;;;;23.20;55.42;99255.25;5105368;28;20054;-30
2023/08/31 00:20:50;;;;;;;8.45;5.72;;;;;;;23.30;57.07;99265.00;5104909;28;20020;-30
2023/08/31 00:23:15;;;;;;;9.80;6.13;;;;;;;23.42;55.78;99267.06;5101541;28;20040;-30
2023/08/31 00:25:43;;;;;;;11.43;5.95;;;;;;;23.25;57.02;99267.88;5109016;28;20084;-30
2023/08/31 00:28:09;;;;;;;9.32;5.63;;;;;;;23.05;57.97;99272.88;5108665;28;20051;-29
2023/08/31 00:30:34;;;;;;;10.73;5.45;;;;;;;23.22;57.99;99269.31;5108497;28;20063;-30
2023/08/31 00:33:00;;;;;;;11.18;5.82;;;;;;;23.27;56.17;99288.22;5108814;28;20298;-30
2023/08/31 00:35:29;;;;;;;9.75;5.45;;;;;;;23.32;56.37;99291.88;5108576;28;20038;-32
2023/08/31 00:37:58;;;;;;;9.77;6.05;;;;;;;23.45;56.22;99294.41;5108456;28;20419;-30
2023/08/31 00:40:25;;;;;;;9.52;5.53;;;;;;;23.50;55.98;99296.16;5108503;28;20057;-30
2023/08/31 00:42:51;;;;;;;16.23;5.75;;;;;;;23.63;56.38;99305.25;5108024;28;20074;-30
2023/08/31 00:45:17;;;;;;;10.48;5.57;;;;;;;23.50;54.13;99301.63;5108487;28;20100;-30
2023/08/31 00:47:47;;;;;;;9.77;5.28;;;;;;;23.46;53.88;99300.66;5107796;28;20560;-30
2023/08/31 00:50:12;;;;;;;9.90;4.95;;;;;;;23.26;53.84;99300.19;5108189;27;20079;-30
2023/08/31 00:52:40;;;;;;;10.27;5.60;;;;;;;23.42;54.11;99305.16;5107848;28;20039;-32
2023/08/31 00:55:08;;;;;;;13.30;5.25;;;;;;;23.22;56.63;99296.53;5107658;28;20515;-30
2023/08/31 00:57:33;;;;;;;10.77;4.88;;;;;;;23.50;57.40;99304.34;5107612;28;20434;-29
2023/08/31 00:59:59;;;;;;;7.82;4.40;;;;;;;23.49;54.82;99302.72;5108034;28;20024;-31
2023/08/31 01:03:03;;;;;;;22.15;8.68;;;;;;;23.46;53.06;99311.53;5108014;28;20119;-30
2023/08/31 01:05:47;;;;;;;38.70;15.07;;;;;;;23.35;51.79;99311.06;5102474;28;20114;-30
2023/08/31 01:08:39;;;;;;;32.00;13.68;;;;;;;23.27;55.88;99298.28;5107597;28;20041;-32
2023/08/31 01:11:49;;;;;;;30.85;11.88;;;;;;;23.45;54.70;99313.44;5107744;28;20114;-30
2023/08/31 01:14:19;;;;;;;34.35;13.82;;;;;;;23.40;56.62;99312.84;5107794;28;20035;-29
2023/08/31 01:17:14;;;;;;;35.15;14.10;;;;;;;23.27;55.13;99314.59;5107455;28;20027;-30
2023/08/31 01:20:21;;;;;;;24.85;9.80;;;;;;;23.10;56.44;99309.19;5107125;28;20031;-29
2023/08/31 01:23:15;;;;;;;14.88;7.75;;;;;;;23.00;56.78;99310.25;5080903;28;20599;-32
2023/08/31 01:25:48;;;;;;;16.63;7.53;;;;;;;22.84;57.88;99324.34;5107691;28;20523;-30
2023/08/31 01:28:14;;;;;;;14.40;7.30;;;;;;;22.86;59.02;99313.97;5107270;28;20458;-31
2023/08/31 01:30:49;;;;;;;13.18;6.55;;;;;;;22.72;58.72;99312.47;5107419;28;20104;-30
2023/08/31 01:33:17;;;;;;;12.95;6.30;;;;;;;22.48;59.34;99329.25;5107562;27;20020;-30
2023/08/31 01:35:49;;;;;;;10.93;6.47;;;;;;;22.37;60.27;99328.72;5106044;28;20035;-30
2023/08/31 01:38:19;;;;;;;11.43;7.10;;;;;;;22.52;60.37;99328.28;5107452;28;20019;-30
2023/08/31 01:41:22;;;;;;;13.30;5.80;;;;;;;22.20;60.18;99329.44;5107176;28;20028;-30
2023/08/31 01:43:58;;;;;;;10.40;5.72;;;;;;;22.14;57.91;99349.72;5023822;28;20033;-32
2023/08/31 01:46:24;;;;;;;11.32;6.35;;;;;;;22.24;59.86;99335.88;5096772;28;20044;-30
2023/08/31 01:48:49;;;;;;;11.77;6.47;;;;;;;22.13;59.95;99331.81;5106671;28;20432;-30
2023/08/31 01:51:33;;;;;;;11.15;6.28;;;;;;;22.02;59.67;99329.38;5106799;27;20518;-31
2023/08/31 01:54:25;;;;;;;12.27;5.80;;;;;;;22.32;61.34;99345.97;5107166;28;20023;-29
2023/08/31 01:56:50;;;;;;;12.07;6.18;;;;;;;22.35;60.39;99329.06;5103055;28;20134;-32
2023/08/31 01:59:28;;;;;;;11.65;6.30;;;;;;;22.42;60.54;99345.69;5107011;28;20110;-30
2023/08/31 02:01:54;;;;;;;12.25;6.45;;;;;;;22.44;60.42;99353.53;5106750;28;20107;-30
2023/08/31 02:04:19;;;;;;;12.93;6.35;;;;;;;22.35;60.19;99355.41;5106739;28;20601;-32
2023/08/31 02:06:44;;;;;;;9.40;5.70;;;;;;;21.91;60.82;99349.78;5106647;28;20472;-30
2023/08/31 02:09:10;;;;;;;9.90;5.60;;;;;;;22.21;59.42;99344.59;5106687;28;20023;-30
2023/08/31 02:11:37;;;;;;;11.27;6.15;;;;;;;22.32;60.64;99356.84;5106735;28;20031;-30
2023/08/31 02:14:04;;;;;;;11.20;5.82;;;;;;;22.57;60.38;99371.59;5106551;28;20031;-30
2023/08/31 02:16:31;;;;;;;11.90;6.18;;;;;;;22.63;59.34;99361.41;5107046;28;20102;-29
2023/08/31 02:19:14;;;;;;;12.50;5.95;;;;;;;22.71;59.18;99363.34;5106393;28;20093;-29
2023/08/31 02:21:42;;;;;;;14.40;6.05;;;;;;;22.23;62.15;99355.97;5106760;28;20035;-30
2023/08/31 02:24:17;;;;;;;11.30;5.65;;;;;;;22.06;59.79;99371.06;5104592;28;20027;-29
2023/08/31 02:26:42;;;;;;;11.70;6.40;;;;;;;22.53;60.90;99365.19;5106441;28;20047;-30
2023/08/31 02:29:20;;;;;;;10.13;5.55;;;;;;;22.45;59.59;99355.94;5106070;28;20107;-30
2023/08/31 02:31:45;;;;;;;11.75;5.85;;;;;;;22.50;59.50;99352.25;5106155;28;20077;-29
2023/08/31 02:34:10;;;;;;;9.15;5.68;;;;;;;22.76;59.65;99365.09;5105703;28;20462;-29
2023/08/31 02:36:36;;;;;;;13.07;5.90;;;;;;;22.64;59.25;99371.97;5106057;28;20119;-29
2023/08/31 02:39:03;;;;;;;10.30;5.78;;;;;;;22.56;60.14;99371.94;5106012;28;20477;-29
2023/08/31 02:41:29;;;;;;;10.32;5.78;;;;;;;22.18;61.53;99356.91;5106119;28;20035;-29
2023/08/31 02:43:54;;;;;;;11.05;5.95;;;;;;;22.17;59.57;99365.38;5105911;28;20092;-30
2023/08/31 02:47:07;;;;;;;11.30;5.90;;;;;;;21.90;61.69;99378.00;5105780;28;20024;-32
2023/08/31 02:49:32;;;;;;;11.40;5.70;;;;;;;21.88;62.01;99382.94;5032167;28;20053;-31
2023/08/31 02:52:21;;;;;;;11.35;5.97;;;;;;;21.95;62.09;99380.59;5106134;28;20024;-32
2023/08/31 02:54:46;;;;;;;11.63;5.97;;;;;;;22.06;61.27;99390.06;5094837;28;20038;-29
2023/08/31 02:57:30;;;;;;;9.85;5.45;;;;;;;21.90;62.78;99388.88;5105206;28;20032;-29
2023/08/31 03:00:24;;;;;;;17.23;5.85;;;;;;;22.19;62.13;99390.28;5105941;28;20497;-29
2023/08/31 03:02:52;;;;;;;13.88;7.10;;;;;;;21.98;62.39;99400.91;5098062;28;20098;-29
2023/08/31 03:05:26;;;;;;;10.73;5.75;;;;;;;22.35;59.54;99410.56;5105768;28;20065;-29
2023/08/31 03:07:52;;;;;;;9.90;6.10;;;;;;;22.01;61.92;99400.28;5105436;28;20080;-28
2023/08/31 03:10:29;;;;;;;11.25;6.22;;;;;;;21.80;63.27;99405.41;5105728;28;20683;-29
2023/08/31 03:12:57;;;;;;;11.27;5.28;;;;;;;21.72;61.40;99414.28;5105745;28;20073;-31
2023/08/31 03:15:28;;;;;;;12.38;5.30;;;;;;;21.83;61.78;99411.03;5105406;28;20119;-31
2023/08/31 03:17:54;;;;;;;10.18;5.40;;;;;;;21.83;63.23;99411.03;5105287;28;20841;-30
2023/08/31 03:20:32;;;;;;;9.98;5.53;;;;;;;22.14;62.37;99409.44;5105430;28;20031;-31
2023/08/31 03:22:57;;;;;;;;;;;;;;;21.80;61.75;99421.69;5105621;28;20088;-32
2023/08/31 03:25:32;;;;;;;14.30;6.45;;;;;;;21.88;62.23;99423.66;5105047;28;19911;-31
2023/08/31 03:27:57;;;;;;;10.25;5.55;;;;;;;21.90;61.99;99415.22;5105216;28;20535;-32
2023/08/31 03:30:44;;;;;;;10.60;5.65;;;;;;;21.83;62.98;99421.88;5105639;28;20023;-32
2023/08/31 03:33:34;;;;;;;10.38;5.55;;;;;;;21.74;62.84;99417.50;5105702;28;20039;-31
2023/08/31 03:36:02;;;;;;;10.63;5.88;;;;;;;21.65;60.51;99415.53;5105366;28;20092;-31
2023/08/31 03:38:37;;;;;;;9.60;5.40;;;;;;;21.75;60.76;99413.69;5105010;28;20034;-31
2023/08/31 03:41:04;;;;;;;11.27;6.10;;;;;;;21.56;61.04;99413.88;5105081;28;20035;-32
2023/08/31 03:43:38;;;;;;;12.00;5.32;;;;;;;21.59;62.87;99405.13;5104762;28;20458;-32
2023/08/31 03:46:04;;;;;;;12.55;5.70;;;;;;;21.84;61.90;99414.53;5105507;28;20027;-32
2023/08/31 03:48:38;;;;;;;11.55;5.70;;;;;;;22.08;61.53;99425.84;5104876;28;20039;-31
2023/08/31 03:51:04;;;;;;;12.30;6.35;;;;;;;22.07;61.00;99427.00;5105114;28;20484;-32
2023/08/31 03:53:47;;;;;;;10.30;6.18;;;;;;;22.27;60.67;99425.69;5105018;28;20036;-29
2023/08/31 03:56:42;;;;;;;19.75;6.28;;;;;;;21.75;62.70;99424.56;5105038;28;20053;-29
2023/08/31 03:59:07;;;;;;;12.63;5.80;;;;;;;21.38;63.17;99429.19;5099076;28;20047;-29
2023/08/31 04:01:45;;;;;;;16.25;5.85;;;;;;;21.35;63.44;99433.31;5108672;28;20400;-29
2023/08/31 04:04:10;;;;;;;13.90;5.97;;;;;;;21.16;63.43;99430.75;5108839;28;20027;-29
2023/08/31 04:07:02;;;;;;;14.65;6.28;;;;;;;21.21;64.36;99438.78;5108937;28;20028;-32
2023/08/31 04:09:45;;;;;;;9.45;5.70;;;;;;;21.50;63.55;99445.75;5104902;28;20031;-29
2023/08/31 04:12:11;;;;;;;12.23;5.50;;;;;;;21.72;62.14;99436.84;5108793;28;20401;-32
2023/08/31 04:14:48;;;;;;;12.65;5.78;;;;;;;21.58;63.14;99447.72;5108962;28;20400;-31
2023/08/31 04:17:13;;;;;;;10.68;5.72;;;;;;;21.59;62.65;99452.03;5108676;28;20110;-30
2023/08/31 04:19:50;;;;;;;8.93;5.93;;;;;;;21.80;62.41;99455.09;5108460;28;20479;-29
2023/08/31 04:22:16;;;;;;;13.35;5.55;;;;;;;21.67;61.14;99459.44;5108592;28;20032;-30
2023/08/31 04:24:52;;;;;;;10.23;5.63;;;;;;;21.59;62.34;99457.47;5108404;28;20039;-29
2023/08/31 04:27:18;;;;;;;11.05;5.45;;;;;;;21.61;62.62;99474.25;5108282;28;20067;-29
2023/08/31 04:29:55;;;;;;;10.85;5.95;;;;;;;21.85;61.02;99467.72;5108599;28;20027;-29
2023/08/31 04:32:20;;;;;;;11.98;5.78;;;;;;;21.69;59.40;99480.06;5108604;28;20102;-29
2023/08/31 04:34:55;;;;;;;10.68;5.82;;;;;;;21.80;61.34;99486.84;5107788;28;20180;-29
2023/08/31 04:37:21;;;;;;;14.45;6.03;;;;;;;22.04;60.49;99476.47;5108456;28;20023;-29
2023/08/31 04:40:16;;;;;;;12.13;5.55;;;;;;;22.16;58.18;99488.69;5108604;28;20035;-29
2023/08/31 04:43:10;;;;;;;11.68;5.88;;;;;;;22.15;56.87;99497.94;5034597;28;20041;-29
2023/08/31 04:46:00;;;;;;;10.75;5.53;;;;;;;22.52;57.57;99491.31;5105314;28;20050;-29
2023/08/31 04:48:25;;;;;;;10.60;5.13;;;;;;;22.91;55.37;99499.78;5098976;27;20155;-30
2023/08/31 04:51:00;;;;;;;10.93;5.20;;;;;;;22.82;55.40;99489.69;5108148;28;20455;-29
2023/08/31 04:53:25;;;;;;;9.20;5.15;;;;;;;22.94;53.17;99494.50;5107777;28;20049;-30
2023/08/31 04:56:03;;;;;;;14.98;6.25;;;;;;;22.98;52.91;99500.13;5107635;28;20026;-30
2023/08/31 04:58:28;;;;;;;242.93;122.40;;;;;;;22.87;52.82;99505.84;5108008;28;20019;-31
2023/08/31 05:01:03;;;;;;;121.72;61.70;;;;;;;22.95;52.97;99514.38;5107563;28;20106;-29
2023/08/31 05:03:28;;;;;;;64.35;32.35;;;;;;;23.00;53.66;99509.56;5107608;28;20032;-29
2023/08/31 05:06:07;;;;;;;33.50;17.55;;;;;;;23.10;53.06;99511.22;5107803;28;20024;-29
2023/08/31 05:08:35;;;;;;;14.57;8.52;;;;;;;23.20;52.72;99521.81;5107672;28;20551;-29
2023/08/31 05:11:00;;;;;;;8.77;4.57;;;;;;;23.18;51.40;99505.00;5107681;28;20043;-30
2023/08/31 05:13:26;;;;;;;11.27;4.07;;;;;;;23.26;51.60;99517.03;5107524;28;20374;-29
2023/08/31 05:16:09;;;;;;;9.75;4.55;;;;;;;23.35;51.43;99517.03;5107327;28;20031;-30
2023/08/31 05:18:35;;;;;;;11.73;5.20;;;;;;;23.10;52.17;99508.50;5107568;28;20020;-29
2023/08/31 05:21:02;;;;;;;15.40;4.60;;;;;;;23.27;51.58;99516.72;5107359;28;20110;-31
2023/08/31 05:23:27;;;;;;;10.73;3.88;;;;;;;23.55;51.30;99521.06;5107512;28;20539;-31
2023/08/31 05:26:11;;;;;;;7.35;3.78;;;;;;;23.42;51.35;99522.81;5107331;28;20130;-30
2023/08/31 05:28:36;;;;;;;8.13;3.35;;;;;;;23.58;50.50;99525.88;5107676;28;20020;-32
2023/08/31 05:31:30;;;;;;;8.20;3.42;;;;;;;23.74;50.17;99507.97;5107050;28;20360;-29
2023/08/31 05:33:55;;;;;;;9.25;3.67;;;;;;;23.66;50.97;99517.72;5107176;27;20044;-29
2023/08/31 05:36:21;;;;;;;7.00;3.20;;;;;;;23.64;51.48;99509.09;5107218;28;20041;-30
2023/08/31 05:39:08;;;;;;;8.65;3.75;;;;;;;23.80;51.03;99511.34;5107192;28;20508;-30
2023/08/31 05:42:09;;;;;;;9.00;3.92;;;;;;;23.96;50.80;99517.91;5107310;28;20458;-33
2023/08/31 05:45:08;;;;;;;10.02;3.85;;;;;;;24.05;50.64;99507.00;5107574;28;20024;-30
2023/08/31 05:48:11;;;;;;;8.77;3.63;;;;;;;24.12;49.66;99520.13;5101750;27;20044;-30
2023/08/31 05:51:03;;;;;;;9.63;3.40;;;;;;;24.24;50.13;99514.81;5107303;28;20058;-30
2023/08/31 05:53:29;;;;;;;11.20;4.15;;;;;;;24.39;49.40;99521.69;5096469;28;20150;-30
2023/08/31 05:56:04;;;;;;;8.63;3.70;;;;;;;24.41;49.65;99525.69;5106786;27;20024;-29
2023/08/31 05:59:15;;;;;;;8.13;3.70;;;;;;;24.71;49.08;99527.72;5106909;28;20092;-31
2023/08/31 06:02:07;;;;;;;91.05;60.65;;;;;;;24.70;47.73;99526.91;5104367;28;20405;-31
2023/08/31 06:04:32;;;;;;;32.22;23.90;;;;;;;24.69;48.43;99519.84;5106482;28;20122;-29
2023/08/31 06:07:07;;;;;;;98.95;70.22;;;;;;;24.73;47.22;99518.06;5106585;28;20102;-29
2023/08/31 06:09:35;;;;;;;31.08;20.88;;;;;;;24.65;48.46;99516.19;5106703;28;20081;-31
2023/08/31 06:12:03;;;;;;;10.82;6.22;;;;;;;24.86;47.69;99519.78;5106870;28;20028;-29
2023/08/31 06:14:28;;;;;;;12.95;8.23;;;;;;;24.92;46.91;99516.88;5106663;28;20042;-31
2023/08/31 06:17:13;;;;;;;38.33;28.48;;;;;;;25.02;47.10;99522.75;5106613;28;20469;-30
2023/08/31 06:20:12;;;;;;;44.67;27.98;;;;;;;25.12;46.84;99529.78;5106512;28;20028;-30
2023/08/31 06:22:38;;;;;;;19.80;12.57;;;;;;;25.33;46.11;99529.03;5099584;28;20435;-29
2023/08/31 06:25:22;;;;;;;25.77;17.67;;;;;;;25.38;45.56;99534.31;5106073;28;20503;-29
2023/08/31 06:28:13;;;;;;;37.95;27.15;;;;;;;25.29;45.12;99536.28;5106613;28;20024;-31
2023/08/31 06:30:38;;;;;;;25.45;17.35;;;;;;;25.52;44.81;99534.03;5106511;28;20034;-30
2023/08/31 06:33:22;;;;;;;12.20;6.25;;;;;;;25.62;44.11;99545.41;5106132;28;20027;-32
2023/08/31 06:36:16;;;;;;;8.32;3.53;;;;;;;25.59;43.93;99542.53;5105822;28;20063;-30
2023/08/31 06:38:44;;;;;;;137.07;90.07;;;;;;;25.69;44.11;99538.59;5106201;28;20028;-30
2023/08/31 06:41:20;;;;;;;14.77;10.00;;;;;;;25.74;44.23;99546.56;5106424;28;20486;-29
2023/08/31 06:43:45;;;;;;;74.97;47.47;;;;;;;26.02;43.42;99550.38;5106063;28;20039;-29
2023/08/31 06:46:20;;;;;;;465.40;293.85;;;;;;;25.96;43.69;99540.00;5105814;28;20028;-30
2023/08/31 06:48:45;;;;;;;316.17;220.23;;;;;;;25.97;44.20;99542.41;5105841;28;20065;-29
2023/08/31 06:51:29;;;;;;;20.65;12.45;;;;;;;26.23;43.53;99544.09;5105787;28;20424;-32
2023/08/31 06:54:30;;;;;;;20.30;14.20;;;;;;;26.37;43.33;99547.31;5104993;28;20028;-29
2023/08/31 06:57:25;;;;;;;12.35;4.80;;;;;;;26.46;43.74;99534.38;5021596;28;20120;-32
2023/08/31 06:59:50;;;;;;;130.38;88.28;;;;;;;26.65;42.70;99541.28;5101921;28;20062;-30
2023/08/31 07:02:26;;;;;;;26.08;15.75;;;;;;;26.95;42.43;99535.59;5105427;28;20131;-31
2023/08/31 07:04:52;;;;;;;140.35;88.93;;;;;;;27.11;41.81;99544.72;5104670;28;20038;-29
2023/08/31 07:07:26;;;;;;;210.25;136.20;;;;;;;27.38;40.07;99554.22;5104270;28;20024;-30
2023/08/31 07:09:54;;;;;;;226.70;139.60;;;;;;;27.48;39.16;99552.91;5104469;28;20032;-32
2023/08/31 07:12:25;;;;;;;;;;;;;;;27.75;40.21;99558.81;5104389;28;20081;-31
2023/08/31 07:14:51;;;;;;;117.88;73.28;;;;;;;27.97;39.06;99560.25;5104194;28;19916;-29
2023/08/31 07:17:28;;;;;;;204.00;115.93;;;;;;;28.02;37.80;99555.31;5104742;28;20028;-30
2023/08/31 07:19:54;;;;;;;133.88;76.68;;;;;;;28.01;38.09;99556.47;5105305;28;20029;-31
2023/08/31 07:22:32;;;;;;;353.58;216.82;;;;;;;28.20;37.53;99568.72;5105281;28;20035;-29
2023/08/31 07:24:58;;;;;;;31.35;21.38;;;;;;;27.91;37.71;99562.44;5105640;28;20016;-30
2023/08/31 07:27:33;;;;;;;22.63;12.57;;;;;;;27.94;37.55;99566.44;5105202;28;20081;-30
2023/08/31 07:29:58;;;;;;;6.90;2.75;;;;;;;28.18;38.04;99565.53;5105314;28;20023;-29
2023/08/31 07:32:33;;;;;;;148.57;84.28;;;;;;;28.30;36.40;99572.91;5105263;28;20047;-30
2023/08/31 07:34:59;;;;;;;39.08;13.35;;;;;;;28.48;36.47;99565.16;5109519;28;20035;-29
2023/08/31 07:37:39;;;;;;;119.68;69.07;;;;;;;28.60;37.01;99565.09;5108932;27;20023;-29
2023/08/31 07:40:33;;;;;;;;;;;;;;;;;;;;;
2023/08/31 07:42:54;;;;;;;8.68;3.15;;;;;;;28.93;36.48;99566.72;5107997;28;20051;-30
2023/08/31 07:45:41;;;;;;;128.73;73.25;;;;;;;29.16;36.29;99564.97;5109279;28;20048;-29
2023/08/31 07:48:06;;;;;;;;;;;;;;;29.21;36.25;99561.16;5109254;28;20492;-29
2023/08/31 07:50:46;;;;;;;18.42;10.07;;;;;;;29.28;37.21;99544.03;5109132;28;19927;-29
2023/08/31 07:53:12;;;;;;;11.95;4.68;;;;;;;29.38;35.96;99554.47;5108308;28;20117;-30
2023/08/31 07:55:55;;;;;;;16.08;5.95;;;;;;;29.27;35.99;99561.69;5108448;28;20496;-30
2023/08/31 07:58:58;;;;;;;32.47;18.60;;;;;;;29.20;36.51;99554.09;5109174;28;20500;-29
2023/08/31 08:01:47;;;;;;;205.60;113.43;;;;;;;29.35;36.30;99549.69;5045562;28;20043;-30
2023/08/31 08:04:13;;;;;;;135.45;77.00;;;;;;;29.57;36.29;99557.25;5058452;28;20143;-29
2023/08/31 08:06:50;;;;;;;157.63;90.22;;;;;;;29.64;35.88;99562.09;5108967;27;20477;-29
2023/08/31 08:09:15;;;;;;;11.65;5.32;;;;;;;29.76;35.53;99558.47;5108799;28;20015;-30
2023/08/31 08:11:50;;;;;;;186.80;99.47;;;;;;;29.82;35.70;99555.06;5109062;28;20149;-29
2023/08/31 08:14:16;;;;;;;61.85;38.55;;;;;;;29.89;35.35;99562.66;5108743;28;20046;-29
2023/08/31 08:16:53;;;;;;;74.45;44.17;;;;;;;29.92;35.84;99552.91;5108863;28;20036;-30
2023/08/31 08:19:50;;;;;;;68.18;40.88;;;;;;;29.98;36.10;99548.72;5108811;28;20023;-31
2023/08/31 08:22:15;;;;;;;75.88;45.63;;;;;;;29.89;36.21;99546.16;5091615;28;20088;-30
2023/08/31 08:24:53;;;;;;;20.42;12.20;;;;;;;30.19;35.55;99543.63;5108881;28;20023;-29
2023/08/31 08:27:20;;;;;;;10.55;4.82;;;;;;;30.41;35.00;99550.34;5108382;28;20530;-29
2023/08/31 08:29:54;;;;;;;16.80;7.82;;;;;;;30.60;35.52;99552.25;5108631;28;20031;-33
2023/08/31 08:32:20;;;;;;;11.23;5.40;;;;;;;31.06;34.84;99551.47;5108121;28;20020;-30
2023/08/31 08:35:06;;;;;;;10.27;5.28;;;;;;;31.15;33.99;99549.22;5108677;28;20024;-29
2023/08/31 08:37:59;;;;;;;10.00;4.47;;;;;;;30.71;34.78;99546.13;5104123;28;20496;-31
2023/08/31 08:40:25;;;;;;;8.55;3.38;;;;;;;30.69;34.80;99543.78;5099270;28;20039;-30
2023/08/31 08:43:06;;;;;;;17.23;8.55;;;;;;;30.84;34.43;99551.09;5087716;28;20066;-29
2023/08/31 08:45:48;;;;;;;;;;;;;;;;;;;;;
2023/08/31 08:48:15;;;;;;;7.72;3.45;;;;;;;30.92;34.47;99538.25;5087559;28;20028;-30
2023/08/31 08:50:40;;;;;;;7.10;3.30;;;;;;;30.85;34.87;99549.13;5087986;28;20047;-29
2023/08/31 08:53:35;;;;;;;10.65;4.93;;;;;;;31.21;34.54;99542.25;5087366;28;20040;-30
2023/08/31 08:56:00;;;;;;;7.15;3.50;;;;;;;31.29;34.19;99536.84;5087597;28;20553;-30
2023/08/31 08:58:38;;;;;;;7.22;4.30;;;;;;;31.49;34.16;99535.59;5087776;28;20076;-29
2023/08/31 09:01:07;;;;;;;9.30;3.78;;;;;;;32.09;32.93;99533.97;5096841;28;20473;-30
2023/08/31 09:03:38;;;;;;;7.38;3.45;;;;;;;32.13;33.01;99545.84;5101105;27;20031;-30
2023/08/31 09:06:07;;;;;;;10.15;5.65;;;;;;;32.07;33.13;99541.84;5107699;28;20050;-29
2023/08/31 09:08:41;;;;;;;10.18;4.93;;;;;;;32.08;31.68;99549.72;5107697;28;20538;-32
2023/08/31 09:11:43;;;;;;;10.02;5.03;;;;;;;32.30;31.80;99538.91;5107787;28;20024;-32
2023/08/31 09:14:56;;;;;;;8.77;3.92;;;;;;;32.32;31.66;99544.84;5084467;28;20035;-33
2023/08/31 09:17:47;;;;;;;8.60;3.60;;;;;;;32.36;31.49;99538.19;5024447;28;20064;-31
2023/08/31 09:22:56;;;;;;;8.68;3.60;;;;;;;32.42;30.86;99531.16;5051328;28;20048;-31
2023/08/31 09:26:17;;;;;;;8.88;3.83;;;;;;;32.11;31.52;99531.63;5086193;28;20052;-31
2023/08/31 09:28:46;;;;;;;12.60;7.25;;;;;;;32.54;31.22;99537.56;5103774;28;20028;-29
2023/08/31 09:31:11;;;;;;;8.82;5.63;;;;;;;32.70;30.57;99535.38;5107895;28;20028;-29
2023/08/31 09:33:52;;;;;;;12.77;6.28;;;;;;;32.38;30.78;99538.59;5106982;28;20724;-29
2023/08/31 09:36:50;;;;;;;9.27;4.78;;;;;;;32.48;31.58;99533.56;5107303;28;20428;-30
2023/08/31 09:39:21;;;;;;;13.23;6.60;;;;;;;32.70;30.39;99540.91;5106995;28;20130;-30
2023/08/31 09:41:54;;;;;;;8.88;4.35;;;;;;;32.87;30.10;99511.06;5107362;28;20024;-29
2023/08/31 09:44:21;;;;;;;8.68;4.35;;;;;;;33.31;29.60;99526.78;5107413;28;20522;-31
2023/08/31 09:46:47;;;;;;;8.98;4.50;;;;;;;33.64;29.00;99520.25;5107188;28;20051;-31
2023/08/31 09:49:22;;;;;;;9.00;3.70;;;;;;;33.46;28.37;99522.09;5106993;28;20044;-29
2023/08/31 09:52:31;;;;;;;7.28;3.85;;;;;;;33.67;28.75;99521.44;5106727;28;20564;-29
2023/08/31 09:55:24;;;;;;;7.57;3.70;;;;;;;32.60;30.01;99514.78;5082525;28;20027;-30
2023/08/31 09:57:51;;;;;;;6.43;4.03;;;;;;;33.02;28.85;99527.34;5107073;28;20151;-30
2023/08/31 10:00:27;;;;;;;8.40;3.85;;;;;;;33.42;28.92;99519.31;5107224;28;20020;-29
2023/08/31 10:02:55;;;;;;;7.65;3.33;;;;;;;33.64;27.17;99516.69;5106679;28;20040;-29
2023/08/31 10:05:33;;;;;;;14.80;4.32;;;;;;;34.30;27.43;99527.56;5107055;28;20027;-30
2023/08/31 10:08:32;;;;;;;7.75;3.17;;;;;;;34.10;27.04;99524.34;5106863;28;20118;-29
2023/08/31 10:11:03;;;;;;;6.68;3.88;;;;;;;34.27;27.22;99515.31;5106727;28;20047;-30
2023/08/31 10:13:40;;;;;;;8.18;4.55;;;;;;;34.73;26.63;99520.09;5105266;28;20035;-30
2023/08/31 10:16:45;;;;;;;9.43;4.85;;;;;;;34.69;25.45;99518.53;5106870;28;20043;-29
2023/08/31 10:19:35;;;;;;;7.50;3.25;;;;;;;34.46;26.11;99513.38;5083255;28;20035;-30
2023/08/31 10:22:01;;;;;;;6.72;3.55;;;;;;;34.70;26.14;99520.91;5083377;28;20085;-31
2023/08/31 10:25:05;;;;;;;5.75;2.70;;;;;;;34.85;25.21;99529.22;5097767;28;20036;-31
2023/08/31 10:27:46;;;;;;;6.20;2.92;;;;;;;34.86;24.76;99514.97;5106026;28;20042;-31
2023/08/31 10:30:52;;;;;;;6.45;3.17;;;;;;;35.00;24.50;99528.00;5106506;28;20740;-29
2023/08/31 10:33:23;;;;;;;9.77;3.20;;;;;;;35.33;24.87;99514.88;5103137;28;20038;-32
2023/08/31 10:36:09;;;;;;;6.20;3.28;;;;;;;35.03;24.32;99507.81;5105859;28;20089;-29
2023/08/31 10:38:35;;;;;;;5.63;3.35;;;;;;;35.09;26.29;99506.22;5106363;28;20031;-30
2023/08/31 10:41:34;;;;;;;7.22;3.90;;;;;;;35.06;26.96;99506.22;5105940;28;20033;-30
2023/08/31 10:44:34;;;;;;;5.68;2.92;;;;;;;34.98;24.45;99510.97;5105972;28;20027;-30
2023/08/31 10:47:37;;;;;;;7.45;3.15;;;;;;;34.32;25.62;99514.91;5106194;28;20019;-29
2023/08/31 10:50:22;;;;;;;5.75;3.22;;;;;;;34.26;25.79;99515.72;5105390;28;20128;-29
2023/08/31 10:53:33;;;;;;;8.60;3.17;;;;;;;33.69;26.11;99511.56;5106170;28;20031;-31
2023/08/31 10:56:29;;;;;;;6.72;3.28;;;;;;;33.31;28.28;99512.94;5103033;27;20051;-29
2023/08/31 10:59:24;;;;;;;7.75;2.65;;;;;;;33.55;27.00;99511.47;5106082;28;20027;-29
2023/08/31 11:02:31;;;;;;;6.00;2.55;;;;;;;33.71;27.22;99509.19;5050155;28;20111;-30
2023/08/31 11:05:27;;;;;;;6.60;3.55;;;;;;;33.48;25.89;99506.72;5105634;28;20028;-29
2023/08/31 11:07:53;;;;;;;5.78;2.85;;;;;;;33.25;26.86;99514.50;5105495;28;20027;-31
2023/08/31 11:10:27;;;;;;;5.93;2.75;;;;;;;33.43;27.70;99504.34;5105812;28;20050;-31
2023/08/31 11:12:54;;;;;;;9.55;3.03;;;;;;;33.62;26.78;99504.03;5105566;28;20031;-31
2023/08/31 11:15:30;;;;;;;9.43;2.70;;;;;;;33.56;27.35;99502.78;5105470;28;20027;-30
2023/08/31 11:17:56;;;;;;;6.40;2.60;;;;;;;33.77;26.01;99506.84;5105405;28;20055;-32
2023/08/31 11:20:31;;;;;;;4.05;2.50;;;;;;;33.52;26.32;99496.47;5105463;28;20027;-29
2023/08/31 11:22:56;;;;;;;5.35;3.15;;;;;;;33.38;26.33;99496.41;5104949;28;20518;-30
2023/08/31 11:25:34;;;;;;;5.07;2.70;;;;;;;33.57;27.49;99493.34;5105450;28;20020;-30
2023/08/31 11:28:34;;;;;;;9.27;3.42;;;;;;;33.65;26.97;99490.63;5105360;28;20055;-30
2023/08/31 11:31:02;;;;;;;5.32;2.70;;;;;;;33.77;25.57;99491.03;5101522;28;20872;-30
2023/08/31 11:33:37;;;;;;;7.25;4.43;;;;;;;33.57;25.83;99485.03;5104750;28;20180;-31
2023/08/31 11:36:03;;;;;;;6.82;3.38;;;;;;;33.47;25.84;99477.50;5089871;28;20028;-29
2023/08/31 11:38:37;;;;;;;12.32;5.07;;;;;;;33.48;26.34;99494.88;5085167;28;20032;-31
2023/08/31 11:41:44;;;;;;;6.53;2.75;;;;;;;33.47;25.91;99496.03;5084953;28;20049;-29
2023/08/31 11:44:39;;;;;;;5.22;2.80;;;;;;;33.22;26.78;99505.00;5100608;28;20120;-29
2023/08/31 11:47:05;;;;;;;6.43;3.00;;;;;;;33.22;26.57;99502.22;5081896;28;20097;-30
2023/08/31 11:49:41;;;;;;;7.95;2.70;;;;;;;33.09;26.31;99485.19;5104337;28;20040;-32
2023/08/31 11:52:07;;;;;;;7.30;2.55;;;;;;;32.95;26.48;99504.41;5105055;28;20443;-30
2023/08/31 11:54:33;;;;;;;7.97;3.95;;;;;;;32.92;28.15;99496.91;5105054;28;20047;-29
2023/08/31 11:57:36;;;;;;;9.83;3.17;;;;;;;32.95;26.38;99504.41;5105594;28;20031;-29
2023/08/31 12:00:26;;;;;;;6.97;3.08;;;;;;;32.81;26.40;99497.59;5104917;28;20504;-31
2023/08/31 12:03:30;;;;;;;27.83;15.60;;;;;;;32.90;26.77;99496.50;5105070;28;20043;-31
2023/08/31 12:05:58;;;;;;;39.67;15.02;;;;;;;32.89;27.04;99492.13;5063186;28;20040;-29
2023/08/31 12:08:33;;;;;;;60.53;25.17;;;;;;;32.61;27.50;99499.00;5104934;28;20082;-29
2023/08/31 12:11:30;;;;;;;17.10;7.22;;;;;;;32.18;27.83;99504.91;5104910;28;20036;-29
2023/08/31 12:14:19;;;;;;;;;;;;;;;;;;;;;
2023/08/31 12:16:44;;;;;;;18.05;5.72;;;;;;;31.91;28.83;99497.88;5100486;28;20043;-29
2023/08/31 12:19:33;;;;;;;12.45;3.25;;;;;;;31.73;28.70;99483.91;5106299;28;20769;-30